Time;durP1;ratioP1;P1;durP2;ratioP2;P2;SDS_P1;SDS_P2;PMS_P1;PMS_P2;Temp;Humidity;BMP_temperature;BMP_pressure;BME280_temperature;BME280_humidity;BME280_pressure;Samples;Min_cycle;Max_cycle;Signal;HPM_P1;HPM_P2
2023/07/26 00:01:06;;;;;;;3.58;2.90;;;;;;;;;;5075113;28;20047;-70
2023/07/26 00:03:32;;;;;;;3.47;2.78;;;;;;;;;;5076221;28;20384;-71
2023/07/26 00:05:58;;;;;;;3.03;2.13;;;;;;;;;;5073074;28;21835;-70
2023/07/26 00:08:24;;;;;;;6.57;2.67;;;;;;;;;;5072538;28;20131;-71
2023/07/26 00:10:50;;;;;;;5.53;2.55;;;;;;;;;;5073398;28;20423;-70
2023/07/26 00:13:16;;;;;;;3.63;2.33;;;;;;;;;;5075368;28;20086;-71
2023/07/26 00:15:42;;;;;;;9.55;3.13;;;;;;;;;;5091974;28;20028;-71
2023/07/26 00:18:08;;;;;;;5.07;2.53;;;;;;;;;;5080103;28;20382;-71
2023/07/26 00:20:35;;;;;;;4.22;2.63;;;;;;;;;;5073654;28;20044;-70
2023/07/26 00:23:01;;;;;;;4.65;2.15;;;;;;;;;;5073062;28;20377;-70
2023/07/26 00:25:28;;;;;;;7.05;2.70;;;;;;;;;;5071275;28;20024;-70
2023/07/26 00:27:54;;;;;;;3.80;2.40;;;;;;;;;;5074314;28;20325;-70
2023/07/26 00:30:21;;;;;;;3.55;2.38;;;;;;;;;;5074570;28;20138;-70
2023/07/26 00:32:47;;;;;;;5.13;2.50;;;;;;;;;;5077813;28;20093;-71
2023/07/26 00:35:19;;;;;;;7.63;2.75;;;;;;;;;;5069735;28;20024;-70
2023/07/26 00:37:45;;;;;;;5.60;2.72;;;;;;;;;;5071737;28;20073;-70
2023/07/26 00:40:12;;;;;;;4.22;2.30;;;;;;;;;;5078184;28;20048;-70
2023/07/26 00:42:38;;;;;;;2.50;1.80;;;;;;;;;;5068185;28;20375;-71
2023/07/26 00:45:04;;;;;;;5.85;2.60;;;;;;;;;;5068631;28;20060;-71
2023/07/26 00:47:30;;;;;;;2.85;1.73;;;;;;;;;;5068457;28;20036;-70
2023/07/26 00:49:56;;;;;;;3.78;1.85;;;;;;;;;;5076028;28;20040;-71
2023/07/26 00:52:25;;;;;;;4.07;2.15;;;;;;;;;;5074833;28;20028;-71
2023/07/26 00:54:51;;;;;;;4.20;2.15;;;;;;;;;;5072190;28;20027;-70
2023/07/26 00:57:17;;;;;;;4.35;1.70;;;;;;;;;;5072115;28;20502;-71
2023/07/26 00:59:43;;;;;;;2.08;1.83;;;;;;;;;;5074578;28;20044;-71
2023/07/26 01:02:09;;;;;;;2.53;1.67;;;;;;;;;;5074310;28;20031;-71
2023/07/26 01:04:35;;;;;;;5.53;2.13;;;;;;;;;;5080755;28;20583;-71
2023/07/26 01:07:21;;;;;;;5.35;2.20;;;;;;;;;;5073486;28;20042;-71
2023/07/26 01:09:50;;;;;;;6.13;2.05;;;;;;;;;;5084143;28;20107;-71
2023/07/26 01:12:20;;;;;;;3.47;2.00;;;;;;;;;;5069872;28;20425;-71
2023/07/26 01:14:59;;;;;;;4.55;2.22;;;;;;;;;;5075618;28;20032;-71
2023/07/26 01:17:25;;;;;;;5.20;2.13;;;;;;;;;;5076386;28;20059;-71
2023/07/26 01:19:51;;;;;;;3.67;2.00;;;;;;;;;;5075747;28;20074;-70
2023/07/26 01:22:17;;;;;;;6.60;2.45;;;;;;;;;;5075130;28;20102;-71
2023/07/26 01:24:43;;;;;;;5.18;2.33;;;;;;;;;;5070635;28;20482;-71
2023/07/26 01:27:09;;;;;;;4.05;2.45;;;;;;;;;;5075095;28;20040;-71
2023/07/26 01:29:35;;;;;;;3.03;2.17;;;;;;;;;;5078790;28;20028;-70
2023/07/26 01:32:01;;;;;;;6.38;2.35;;;;;;;;;;5075846;28;20501;-71
2023/07/26 01:34:28;;;;;;;5.53;2.20;;;;;;;;;;5074271;28;20043;-71
2023/07/26 01:36:54;;;;;;;3.47;2.25;;;;;;;;;;5076322;28;20100;-72
2023/07/26 01:39:21;;;;;;;5.47;2.70;;;;;;;;;;5080609;28;20542;-72
2023/07/26 01:41:48;;;;;;;5.45;2.40;;;;;;;;;;5079448;28;20052;-71
2023/07/26 01:44:14;;;;;;;5.38;2.50;;;;;;;;;;5077099;28;20111;-70
2023/07/26 01:46:40;;;;;;;5.95;2.33;;;;;;;;;;5076582;28;20567;-70
2023/07/26 01:49:06;;;;;;;4.43;2.28;;;;;;;;;;5067084;28;20064;-70
2023/07/26 01:51:32;;;;;;;4.53;2.00;;;;;;;;;;5079791;28;20275;-70
2023/07/26 01:53:58;;;;;;;5.47;2.22;;;;;;;;;;5076520;28;20114;-69
2023/07/26 01:56:24;;;;;;;5.65;2.33;;;;;;;;;;5076205;28;20464;-69
2023/07/26 01:58:50;;;;;;;4.40;2.17;;;;;;;;;;5069323;28;20405;-69
2023/07/26 02:01:16;;;;;;;4.80;2.25;;;;;;;;;;5073533;28;20763;-69
2023/07/26 02:03:42;;;;;;;5.00;1.90;;;;;;;;;;5077259;28;20039;-69
2023/07/26 02:06:08;;;;;;;4.00;2.47;;;;;;;;;;5074900;28;20140;-70
2023/07/26 02:08:34;;;;;;;4.07;2.38;;;;;;;;;;5076538;28;20078;-70
2023/07/26 02:11:00;;;;;;;4.78;2.20;;;;;;;;;;5078225;28;20070;-69
2023/07/26 02:13:26;;;;;;;9.75;3.17;;;;;;;;;;5075768;28;20044;-69
2023/07/26 02:15:52;;;;;;;4.10;2.15;;;;;;;;;;5064724;28;20036;-69
2023/07/26 02:18:18;;;;;;;2.88;2.38;;;;;;;;;;5072954;28;20295;-69
2023/07/26 02:20:44;;;;;;;3.53;2.10;;;;;;;;;;5071524;28;20029;-69
2023/07/26 02:23:10;;;;;;;4.68;2.53;;;;;;;;;;5077402;28;20393;-69
2023/07/26 02:25:36;;;;;;;3.65;2.30;;;;;;;;;;5069833;28;20025;-69
2023/07/26 02:28:03;;;;;;;4.93;3.28;;;;;;;;;;5074780;28;20033;-70
2023/07/26 02:30:29;;;;;;;7.60;2.50;;;;;;;;;;5077367;28;20040;-70
2023/07/26 02:32:55;;;;;;;7.00;2.53;;;;;;;;;;5072167;28;20455;-70
2023/07/26 02:35:21;;;;;;;4.25;2.50;;;;;;;;;;5077453;28;20415;-69
2023/07/26 02:37:47;;;;;;;2.75;2.50;;;;;;;;;;5078040;28;20043;-70
2023/07/26 02:40:13;;;;;;;6.38;2.70;;;;;;;;;;5075158;28;20055;-70
2023/07/26 02:42:39;;;;;;;4.47;2.20;;;;;;;;;;5070353;28;20040;-69
2023/07/26 02:45:05;;;;;;;6.50;2.83;;;;;;;;;;5074134;28;20064;-70
2023/07/26 02:47:32;;;;;;;9.07;2.97;;;;;;;;;;5076498;28;20037;-70
2023/07/26 02:50:04;;;;;;;4.03;2.55;;;;;;;;;;5076664;28;20034;-70
2023/07/26 02:52:30;;;;;;;6.80;3.07;;;;;;;;;;5077699;28;20035;-70
2023/07/26 02:54:56;;;;;;;6.18;2.45;;;;;;;;;;5071460;28;20031;-70
2023/07/26 02:57:22;;;;;;;6.28;2.55;;;;;;;;;;5078311;28;20032;-70
2023/07/26 02:59:48;;;;;;;6.32;2.47;;;;;;;;;;5075753;28;20021;-70
2023/07/26 03:02:14;;;;;;;5.05;2.25;;;;;;;;;;5074316;28;20384;-70
2023/07/26 03:04:41;;;;;;;3.35;1.95;;;;;;;;;;5078517;28;20032;-70
2023/07/26 03:07:07;;;;;;;12.38;2.83;;;;;;;;;;5075825;28;20067;-70
2023/07/26 03:09:33;;;;;;;9.65;2.70;;;;;;;;;;5078409;28;20060;-70
2023/07/26 03:11:59;;;;;;;3.95;2.10;;;;;;;;;;5072974;28;20150;-70
2023/07/26 03:14:25;;;;;;;5.47;2.08;;;;;;;;;;5073450;28;20505;-69
2023/07/26 03:16:51;;;;;;;5.90;1.77;;;;;;;;;;5090377;28;20040;-70
2023/07/26 03:19:17;;;;;;;4.03;2.05;;;;;;;;;;5071372;28;20055;-71
2023/07/26 03:21:43;;;;;;;1.90;1.67;;;;;;;;;;5073048;28;20433;-70
2023/07/26 03:24:09;;;;;;;7.60;1.70;;;;;;;;;;5069694;28;20062;-70
2023/07/26 03:26:35;;;;;;;5.22;2.00;;;;;;;;;;5072472;28;20044;-70
2023/07/26 03:29:01;;;;;;;3.17;1.88;;;;;;;;;;5072061;28;20040;-70
2023/07/26 03:31:27;;;;;;;7.82;2.30;;;;;;;;;;5070010;28;20048;-70
2023/07/26 03:33:53;;;;;;;2.22;1.23;;;;;;;;;;5088553;28;20028;-70
2023/07/26 03:36:19;;;;;;;4.07;1.63;;;;;;;;;;5072764;28;20070;-70
2023/07/26 03:38:45;;;;;;;8.80;2.05;;;;;;;;;;5072790;28;20033;-70
2023/07/26 03:41:11;;;;;;;3.13;1.50;;;;;;;;;;5080868;28;20396;-71
2023/07/26 03:43:37;;;;;;;5.70;2.63;;;;;;;;;;5072439;28;20453;-70
2023/07/26 03:46:03;;;;;;;3.42;1.65;;;;;;;;;;5079104;28;20429;-70
2023/07/26 03:48:29;;;;;;;5.00;2.28;;;;;;;;;;5072650;28;20067;-70
2023/07/26 03:50:55;;;;;;;4.28;1.67;;;;;;;;;;5079690;28;20044;-70
2023/07/26 03:53:21;;;;;;;3.60;1.88;;;;;;;;;;5073628;28;20025;-70
2023/07/26 03:55:47;;;;;;;5.47;1.67;;;;;;;;;;5076986;28;20526;-70
2023/07/26 03:58:13;;;;;;;5.80;1.70;;;;;;;;;;5072357;28;20035;-70
2023/07/26 04:00:39;;;;;;;2.22;1.58;;;;;;;;;;5071624;28;20109;-70
2023/07/26 04:03:05;;;;;;;4.97;2.03;;;;;;;;;;5080801;28;20424;-70
2023/07/26 04:05:32;;;;;;;6.45;2.00;;;;;;;;;;5085264;28;20078;-71
2023/07/26 04:07:58;;;;;;;3.03;1.75;;;;;;;;;;5084912;28;20031;-71
2023/07/26 04:10:26;;;;;;;3.55;1.73;;;;;;;;;;5088603;28;20054;-71
2023/07/26 04:12:52;;;;;;;4.63;1.73;;;;;;;;;;5082400;28;20137;-71
2023/07/26 04:15:18;;;;;;;5.65;2.35;;;;;;;;;;5086013;28;20727;-71
2023/07/26 04:17:44;;;;;;;4.22;1.70;;;;;;;;;;5076236;28;20032;-71
2023/07/26 04:20:11;;;;;;;5.30;2.15;;;;;;;;;;5077224;28;20371;-71
2023/07/26 04:22:37;;;;;;;6.45;3.70;;;;;;;;;;5085226;28;20056;-71
2023/07/26 04:25:03;;;;;;;6.85;3.95;;;;;;;;;;5077168;28;20078;-71
2023/07/26 04:27:29;;;;;;;5.38;1.98;;;;;;;;;;5069367;28;20188;-71
2023/07/26 04:29:55;;;;;;;2.63;1.60;;;;;;;;;;5088303;28;20096;-70
2023/07/26 04:32:21;;;;;;;5.43;2.08;;;;;;;;;;5088106;28;20024;-71
2023/07/26 04:34:47;;;;;;;5.45;2.60;;;;;;;;;;5076794;28;20036;-72
2023/07/26 04:37:13;;;;;;;6.80;2.58;;;;;;;;;;5093456;28;20040;-71
2023/07/26 04:39:39;;;;;;;3.45;1.50;;;;;;;;;;5086878;28;20032;-72
2023/07/26 04:42:05;;;;;;;11.40;7.15;;;;;;;;;;5087085;28;20111;-70
2023/07/26 04:44:31;;;;;;;3.65;1.67;;;;;;;;;;5078157;28;20088;-70
2023/07/26 04:46:58;;;;;;;5.60;2.53;;;;;;;;;;5087687;28;20100;-70
2023/07/26 04:49:24;;;;;;;5.32;3.20;;;;;;;;;;5081636;28;20032;-70
2023/07/26 04:51:50;;;;;;;4.00;1.85;;;;;;;;;;5091324;28;20036;-71
2023/07/26 04:54:16;;;;;;;4.68;1.83;;;;;;;;;;5089882;28;20370;-71
2023/07/26 04:56:42;;;;;;;3.45;1.95;;;;;;;;;;5091295;28;20027;-71
2023/07/26 04:59:08;;;;;;;2.75;1.70;;;;;;;;;;5092935;28;20024;-71
2023/07/26 05:01:34;;;;;;;4.32;1.80;;;;;;;;;;5091106;28;20177;-71
2023/07/26 05:04:00;;;;;;;3.00;2.00;;;;;;;;;;5091088;28;20028;-71
2023/07/26 05:06:26;;;;;;;2.67;1.42;;;;;;;;;;5084454;28;20016;-70
2023/07/26 05:08:52;;;;;;;4.40;1.80;;;;;;;;;;5082869;28;20435;-71
2023/07/26 05:11:22;;;;;;;3.50;1.75;;;;;;;;;;5089975;28;20039;-71
2023/07/26 05:13:48;;;;;;;6.63;2.65;;;;;;;;;;5087774;28;20051;-71
2023/07/26 05:16:14;;;;;;;2.30;1.58;;;;;;;;;;5091856;28;20027;-72
2023/07/26 05:18:41;;;;;;;2.53;1.70;;;;;;;;;;5083869;28;20028;-71
2023/07/26 05:21:07;;;;;;;2.50;1.85;;;;;;;;;;5085389;28;20040;-71
2023/07/26 05:23:33;;;;;;;5.20;1.83;;;;;;;;;;5076637;28;20524;-72
2023/07/26 05:25:59;;;;;;;8.02;6.00;;;;;;;;;;5083127;28;20109;-72
2023/07/26 05:28:25;;;;;;;3.60;2.00;;;;;;;;;;5081872;28;20032;-71
2023/07/26 05:30:51;;;;;;;5.60;2.70;;;;;;;;;;5091978;28;20111;-71
2023/07/26 05:33:17;;;;;;;8.07;3.58;;;;;;;;;;5083336;28;20355;-72
2023/07/26 05:35:43;;;;;;;12.38;2.03;;;;;;;;;;5089442;28;20120;-71
2023/07/26 05:38:09;;;;;;;4.00;1.38;;;;;;;;;;5092030;28;20036;-72
2023/07/26 05:40:35;;;;;;;12.55;2.80;;;;;;;;;;5078499;28;20554;-71
2023/07/26 05:43:02;;;;;;;3.97;1.98;;;;;;;;;;5091625;28;20036;-71
2023/07/26 05:45:28;;;;;;;3.17;1.45;;;;;;;;;;5082324;28;20024;-71
2023/07/26 05:47:54;;;;;;;2.33;1.30;;;;;;;;;;5082765;28;20237;-71
2023/07/26 05:50:20;;;;;;;3.03;1.40;;;;;;;;;;5095268;28;20031;-71
2023/07/26 05:52:46;;;;;;;2.33;1.02;;;;;;;;;;5084785;28;20139;-71
2023/07/26 05:55:12;;;;;;;4.63;1.10;;;;;;;;;;5097865;28;20031;-72
2023/07/26 05:57:38;;;;;;;4.45;1.45;;;;;;;;;;5092184;28;20040;-71
2023/07/26 06:00:05;;;;;;;4.47;1.50;;;;;;;;;;5091771;28;20032;-71
2023/07/26 06:02:31;;;;;;;2.20;1.42;;;;;;;;;;5094696;28;20031;-72
2023/07/26 06:04:57;;;;;;;1.75;1.58;;;;;;;;;;5093748;28;20701;-71
2023/07/26 06:07:23;;;;;;;4.22;1.92;;;;;;;;;;5090694;28;20023;-71
2023/07/26 06:09:49;;;;;;;3.33;1.40;;;;;;;;;;5098213;28;20446;-71
2023/07/26 06:12:15;;;;;;;4.70;1.90;;;;;;;;;;5091770;28;20152;-71
2023/07/26 06:14:41;;;;;;;6.63;2.42;;;;;;;;;;5088619;28;20435;-71
2023/07/26 06:17:07;;;;;;;11.07;2.72;;;;;;;;;;5081016;28;20035;-71
2023/07/26 06:19:33;;;;;;;4.25;2.13;;;;;;;;;;5084316;28;20035;-71
2023/07/26 06:21:59;;;;;;;4.85;2.42;;;;;;;;;;5082373;28;20052;-71
2023/07/26 06:24:26;;;;;;;4.70;2.22;;;;;;;;;;5092062;28;20055;-71
2023/07/26 06:26:52;;;;;;;5.28;2.58;;;;;;;;;;5093801;28;20370;-70
2023/07/26 06:29:19;;;;;;;5.25;2.13;;;;;;;;;;5080794;28;20099;-70
2023/07/26 06:31:45;;;;;;;5.68;2.35;;;;;;;;;;5083522;28;20097;-70
2023/07/26 06:34:11;;;;;;;5.53;2.33;;;;;;;;;;5086938;28;20440;-72
2023/07/26 06:36:37;;;;;;;6.22;2.30;;;;;;;;;;5085781;28;20114;-69
2023/07/26 06:39:04;;;;;;;6.38;2.20;;;;;;;;;;5082281;28;20036;-70
2023/07/26 06:41:30;;;;;;;8.45;2.78;;;;;;;;;;5084720;28;20123;-70
2023/07/26 06:43:56;;;;;;;6.10;2.65;;;;;;;;;;5090844;28;20451;-71
2023/07/26 06:46:22;;;;;;;6.25;2.97;;;;;;;;;;5080494;28;20725;-71
2023/07/26 06:48:48;;;;;;;4.60;2.50;;;;;;;;;;5084738;28;20450;-71
2023/07/26 06:51:14;;;;;;;5.43;2.80;;;;;;;;;;5093707;28;20034;-71
2023/07/26 06:53:40;;;;;;;4.38;2.58;;;;;;;;;;5088199;28;20028;-70
2023/07/26 06:56:06;;;;;;;4.55;2.45;;;;;;;;;;5089220;28;20041;-71
2023/07/26 06:58:32;;;;;;;5.35;2.85;;;;;;;;;;5083155;28;20032;-69
2023/07/26 07:00:59;;;;;;;6.88;3.53;;;;;;;;;;5095130;28;20164;-69
2023/07/26 07:03:25;;;;;;;9.80;3.90;;;;;;;;;;5095400;28;20398;-71
2023/07/26 07:05:51;;;;;;;5.82;3.55;;;;;;;;;;5084336;28;20397;-70
2023/07/26 07:08:17;;;;;;;6.85;2.95;;;;;;;;;;5080196;28;20032;-71
2023/07/26 07:10:43;;;;;;;4.95;3.17;;;;;;;;;;5081475;28;20040;-72
2023/07/26 07:13:09;;;;;;;5.72;3.05;;;;;;;;;;5081496;28;20032;-73
2023/07/26 07:15:35;;;;;;;4.57;2.95;;;;;;;;;;5091000;28;20142;-72
2023/07/26 07:18:01;;;;;;;4.18;2.90;;;;;;;;;;5087632;28;20041;-71
2023/07/26 07:20:27;;;;;;;7.40;3.30;;;;;;;;;;5091852;28;20035;-72
2023/07/26 07:22:55;;;;;;;4.97;3.58;;;;;;;;;;5082837;28;20451;-71
2023/07/26 07:25:21;;;;;;;5.40;3.25;;;;;;;;;;5082545;28;20554;-72
2023/07/26 07:27:47;;;;;;;5.35;2.83;;;;;;;;;;5090988;28;20080;-71
2023/07/26 07:30:14;;;;;;;9.23;2.45;;;;;;;;;;5088777;28;20035;-71
2023/07/26 07:32:40;;;;;;;3.50;2.10;;;;;;;;;;5089790;28;20484;-71
2023/07/26 07:35:06;;;;;;;3.40;1.83;;;;;;;;;;5091938;28;20523;-72
2023/07/26 07:37:32;;;;;;;3.95;1.98;;;;;;;;;;5092038;28;20444;-71
2023/07/26 07:39:58;;;;;;;5.85;2.10;;;;;;;;;;5088602;28;20033;-70
2023/07/26 07:42:24;;;;;;;5.47;2.00;;;;;;;;;;5090522;28;20040;-70
2023/07/26 07:44:51;;;;;;;3.92;1.80;;;;;;;;;;5078163;28;20074;-71
2023/07/26 07:47:17;;;;;;;4.40;1.88;;;;;;;;;;5085554;28;20051;-71
2023/07/26 07:49:43;;;;;;;3.40;1.80;;;;;;;;;;5095358;28;20043;-72
2023/07/26 07:52:09;;;;;;;2.22;1.67;;;;;;;;;;5093230;28;20032;-72
2023/07/26 07:54:35;;;;;;;3.00;1.73;;;;;;;;;;5096475;28;20033;-72
2023/07/26 07:57:01;;;;;;;2.85;1.67;;;;;;;;;;5086958;28;20043;-73
2023/07/26 07:59:27;;;;;;;1.45;1.15;;;;;;;;;;5098628;28;20032;-72
2023/07/26 08:01:53;;;;;;;2.42;1.52;;;;;;;;;;5083440;28;20037;-73
2023/07/26 08:04:19;;;;;;;3.88;1.40;;;;;;;;;;5091838;28;20118;-72
2023/07/26 08:06:45;;;;;;;2.75;1.55;;;;;;;;;;5095156;28;20031;-72
2023/07/26 08:09:11;;;;;;;3.38;1.33;;;;;;;;;;5099812;28;20040;-72
2023/07/26 08:11:37;;;;;;;3.22;1.70;;;;;;;;;;5098269;28;20040;-72
2023/07/26 08:14:03;;;;;;;4.03;1.70;;;;;;;;;;5090362;28;20436;-72
2023/07/26 08:16:29;;;;;;;4.07;1.95;;;;;;;;;;5093849;28;20036;-72
2023/07/26 08:18:57;;;;;;;5.45;1.70;;;;;;;;;;5107347;27;20442;-73
2023/07/26 08:21:23;;;;;;;6.25;2.30;;;;;;;;;;5092324;28;20108;-72
2023/07/26 08:23:50;;;;;;;5.20;1.88;;;;;;;;;;5090954;28;20044;-71
2023/07/26 08:26:16;;;;;;;2.70;1.80;;;;;;;;;;5094039;28;20105;-72
2023/07/26 08:28:42;;;;;;;3.50;2.20;;;;;;;;;;5098228;28;20028;-72
2023/07/26 08:31:09;;;;;;;3.83;2.40;;;;;;;;;;5094780;28;20501;-72
2023/07/26 08:33:35;;;;;;;4.53;2.70;;;;;;;;;;5097725;28;20027;-72
2023/07/26 08:36:01;;;;;;;3.03;2.20;;;;;;;;;;5094481;28;20119;-72
2023/07/26 08:38:27;;;;;;;3.90;2.72;;;;;;;;;;5095255;28;20027;-71
2023/07/26 08:40:54;;;;;;;4.43;2.90;;;;;;;;;;5097503;28;20103;-73
2023/07/26 08:43:23;;;;;;;3.95;2.72;;;;;;;;;;5094995;28;20133;-72
2023/07/26 08:45:50;;;;;;;3.38;2.63;;;;;;;;;;5086251;28;20028;-72
2023/07/26 08:48:17;;;;;;;39.78;4.25;;;;;;;;;;5095626;27;20107;-73
2023/07/26 08:50:43;;;;;;;4.38;2.95;;;;;;;;;;5097023;28;20032;-72
2023/07/26 08:53:09;;;;;;;5.07;2.63;;;;;;;;;;5087453;28;20047;-72
2023/07/26 08:55:36;;;;;;;2.47;1.88;;;;;;;;;;5087395;28;20044;-72
2023/07/26 08:58:03;;;;;;;2.72;1.90;;;;;;;;;;5091679;28;20035;-72
2023/07/26 09:00:29;;;;;;;3.97;1.90;;;;;;;;;;5091772;28;20028;-72
2023/07/26 09:02:57;;;;;;;3.40;1.70;;;;;;;;;;5091351;28;20489;-73
2023/07/26 09:05:24;;;;;;;3.38;1.73;;;;;;;;;;5075221;28;21201;-75
2023/07/26 09:07:53;;;;;;;3.45;1.90;;;;;;;;;;5085450;28;20104;-74
2023/07/26 09:10:29;;;;;;;2.05;1.70;;;;;;;;;;5080841;28;20062;-74
2023/07/26 09:13:11;;;;;;;2.50;2.05;;;;;;;;;;5083723;28;20040;-73
2023/07/26 09:15:37;;;;;;;;;;;;;;;;;;5092760;28;20040;-73
2023/07/26 09:18:07;;;;;;;5.18;2.30;;;;;;;;;;5079373;28;20449;-74
2023/07/26 09:20:33;;;;;;;3.70;2.00;;;;;;;;;;5081587;28;20426;-74
2023/07/26 09:22:59;;;;;;;4.75;1.80;;;;;;;;;;5089952;28;20035;-74
2023/07/26 09:25:37;;;;;;;3.28;2.05;;;;;;;;;;5081994;28;20075;-73
2023/07/26 09:28:03;;;;;;;3.95;2.15;;;;;;;;;;5085038;28;20024;-74
2023/07/26 09:30:30;;;;;;;3.45;2.20;;;;;;;;;;5079760;28;20616;-74
2023/07/26 09:32:56;;;;;;;2.85;1.50;;;;;;;;;;5083782;28;20035;-74
2023/07/26 09:35:23;;;;;;;2.13;1.60;;;;;;;;;;5095091;28;20055;-74
2023/07/26 09:37:49;;;;;;;2.20;1.65;;;;;;;;;;5093420;28;20357;-74
2023/07/26 09:40:15;;;;;;;2.75;1.60;;;;;;;;;;5093427;28;20055;-74
2023/07/26 09:42:45;;;;;;;2.60;1.55;;;;;;;;;;5086604;28;20028;-75
2023/07/26 09:45:18;;;;;;;2.75;1.40;;;;;;;;;;5096002;28;20382;-74
2023/07/26 09:47:44;;;;;;;3.45;1.60;;;;;;;;;;5089390;28;20510;-74
2023/07/26 09:50:26;;;;;;;2.35;1.65;;;;;;;;;;5101672;28;20027;-74
2023/07/26 09:52:56;;;;;;;2.67;1.85;;;;;;;;;;5090227;28;20027;-73
2023/07/26 09:55:23;;;;;;;2.95;1.80;;;;;;;;;;5083723;28;20028;-74
2023/07/26 09:57:51;;;;;;;3.75;1.85;;;;;;;;;;5092442;28;20032;-73
2023/07/26 10:00:18;;;;;;;3.33;2.13;;;;;;;;;;5097520;28;20135;-73
2023/07/26 10:02:46;;;;;;;3.35;2.15;;;;;;;;;;5090342;28;20023;-74
2023/07/26 10:05:16;;;;;;;2.58;1.45;;;;;;;;;;5085536;28;20040;-72
2023/07/26 10:07:43;;;;;;;3.88;1.50;;;;;;;;;;5094273;28;20111;-74
2023/07/26 10:10:10;;;;;;;1.92;1.58;;;;;;;;;;5095322;28;20031;-73
2023/07/26 10:12:39;;;;;;;2.67;1.23;;;;;;;;;;5092702;28;20095;-72
2023/07/26 10:15:05;;;;;;;4.63;1.92;;;;;;;;;;5092944;28;20023;-71
2023/07/26 10:17:32;;;;;;;1.63;1.35;;;;;;;;;;5095264;28;20019;-71
2023/07/26 10:19:59;;;;;;;6.53;5.10;;;;;;;;;;5086869;28;20497;-71
2023/07/26 10:22:25;;;;;;;8.45;4.63;;;;;;;;;;5083548;28;20058;-69
2023/07/26 10:24:52;;;;;;;4.25;2.47;;;;;;;;;;5074068;28;20147;-70
2023/07/26 10:27:18;;;;;;;2.97;1.35;;;;;;;;;;5082056;28;20047;-73
2023/07/26 10:29:44;;;;;;;2.53;1.65;;;;;;;;;;5090823;28;20421;-73
2023/07/26 10:32:11;;;;;;;1.92;1.10;;;;;;;;;;5097604;28;20100;-74
2023/07/26 10:34:37;;;;;;;3.13;1.30;;;;;;;;;;5087966;28;20032;-74
2023/07/26 10:37:23;;;;;;;1.27;1.17;;;;;;;;;;5085830;28;20028;-72
2023/07/26 10:39:49;;;;;;;1.63;0.93;;;;;;;;;;5084387;28;20031;-72
2023/07/26 10:42:28;;;;;;;1.27;0.85;;;;;;;;;;5094109;28;20034;-72
2023/07/26 10:44:55;;;;;;;3.30;1.08;;;;;;;;;;5088569;28;20124;-72
2023/07/26 10:47:21;;;;;;;2.53;1.17;;;;;;;;;;5087635;28;20040;-71
2023/07/26 10:49:47;;;;;;;2.05;1.30;;;;;;;;;;5087055;28;20032;-73
2023/07/26 10:52:13;;;;;;;3.28;1.58;;;;;;;;;;5088798;28;20043;-72
2023/07/26 10:54:41;;;;;;;2.95;1.38;;;;;;;;;;5083833;28;20024;-72
2023/07/26 10:57:18;;;;;;;2.42;1.45;;;;;;;;;;5085755;28;20031;-72
2023/07/26 10:59:50;;;;;;;3.05;1.55;;;;;;;;;;5089148;28;20401;-74
2023/07/26 11:02:16;;;;;;;2.25;1.20;;;;;;;;;;5085962;28;20049;-72
2023/07/26 11:04:44;;;;;;;2.30;1.17;;;;;;;;;;5088480;28;20035;-70
2023/07/26 11:07:11;;;;;;;1.88;1.40;;;;;;;;;;5089345;28;20109;-74
2023/07/26 11:09:37;;;;;;;2.08;1.25;;;;;;;;;;5084162;28;20163;-71
2023/07/26 11:12:03;;;;;;;24.10;15.77;;;;;;;;;;5087588;28;20530;-73
2023/07/26 11:14:30;;;;;;;4.32;2.45;;;;;;;;;;5090605;28;20032;-75
2023/07/26 11:16:58;;;;;;;34.05;12.98;;;;;;;;;;5092671;28;20248;-72
2023/07/26 11:19:24;;;;;;;22.95;9.27;;;;;;;;;;5089123;28;20051;-71
2023/07/26 11:21:50;;;;;;;16.08;5.38;;;;;;;;;;5099854;28;20492;-72
2023/07/26 11:24:16;;;;;;;69.30;22.38;;;;;;;;;;5098104;28;20040;-74
2023/07/26 11:26:46;;;;;;;94.85;36.45;;;;;;;;;;5090411;28;20414;-73
2023/07/26 11:29:13;;;;;;;13.02;5.18;;;;;;;;;;5089901;28;22580;-73
2023/07/26 11:31:40;;;;;;;25.20;8.70;;;;;;;;;;5091449;28;20039;-72
2023/07/26 11:34:16;;;;;;;2.90;1.73;;;;;;;;;;5082710;28;20031;-74
2023/07/26 11:36:42;;;;;;;4.45;2.90;;;;;;;;;;5096950;28;20078;-72
2023/07/26 11:39:18;;;;;;;8.52;2.50;;;;;;;;;;5089693;28;20023;-74
2023/07/26 11:41:44;;;;;;;8.48;2.75;;;;;;;;;;5083516;28;20409;-72
2023/07/26 11:44:10;;;;;;;5.72;2.00;;;;;;;;;;5089100;28;20067;-72
2023/07/26 11:46:37;;;;;;;3.75;2.10;;;;;;;;;;5090129;28;20039;-75
2023/07/26 11:49:03;;;;;;;4.32;1.90;;;;;;;;;;5089385;28;21362;-75
2023/07/26 11:51:32;;;;;;;6.10;1.70;;;;;;;;;;5093872;28;20040;-71
2023/07/26 11:53:58;;;;;;;4.90;1.25;;;;;;;;;;5087691;28;20059;-72
2023/07/26 11:56:30;;;;;;;2.65;1.60;;;;;;;;;;5090793;28;20442;-71
2023/07/26 11:58:57;;;;;;;3.10;1.98;;;;;;;;;;5089714;28;20031;-69
2023/07/26 12:01:24;;;;;;;6.53;2.58;;;;;;;;;;5089975;28;20484;-70
2023/07/26 12:03:51;;;;;;;5.10;2.63;;;;;;;;;;5084603;28;20396;-73
2023/07/26 12:06:19;;;;;;;4.68;1.50;;;;;;;;;;5093072;28;20480;-71
2023/07/26 12:08:47;;;;;;;6.22;1.50;;;;;;;;;;5084986;28;20385;-70
2023/07/26 12:11:17;;;;;;;2.30;1.27;;;;;;;;;;5090494;28;20039;-74
2023/07/26 12:13:44;;;;;;;4.70;1.42;;;;;;;;;;5094085;28;20036;-72
2023/07/26 12:16:10;;;;;;;2.35;0.98;;;;;;;;;;5076890;28;20029;-73
2023/07/26 12:18:36;;;;;;;2.05;1.40;;;;;;;;;;5090480;28;20058;-74
2023/07/26 12:21:09;;;;;;;5.72;1.40;;;;;;;;;;5093213;28;20035;-71
2023/07/26 12:23:53;;;;;;;4.18;1.20;;;;;;;;;;5094190;28;20023;-72
2023/07/26 12:26:21;;;;;;;4.32;1.42;;;;;;;;;;5074894;28;20123;-72
2023/07/26 12:28:47;;;;;;;3.35;1.25;;;;;;;;;;5088611;28;20100;-72
2023/07/26 12:31:18;;;;;;;4.18;1.10;;;;;;;;;;5091726;28;20419;-70
2023/07/26 12:34:13;;;;;;;2.65;1.10;;;;;;;;;;5090975;28;20481;-74
2023/07/26 12:36:45;;;;;;;4.65;1.42;;;;;;;;;;5071933;28;20382;-73
2023/07/26 12:39:12;;;;;;;17.73;2.00;;;;;;;;;;5094854;28;20463;-72
2023/07/26 12:41:38;;;;;;;3.42;1.00;;;;;;;;;;5089299;28;20042;-74
2023/07/26 12:44:06;;;;;;;2.03;1.20;;;;;;;;;;5099613;28;20028;-74
2023/07/26 12:46:32;;;;;;;2.95;1.10;;;;;;;;;;5086309;28;20245;-74
2023/07/26 12:48:58;;;;;;;2.53;1.08;;;;;;;;;;5089176;28;20054;-74
2023/07/26 12:51:25;;;;;;;2.35;1.20;;;;;;;;;;5092514;28;20107;-73
2023/07/26 12:53:52;;;;;;;11.38;2.00;;;;;;;;;;5078747;28;20107;-73
2023/07/26 12:56:18;;;;;;;1.55;1.10;;;;;;;;;;5087689;28;20038;-74
2023/07/26 12:58:44;;;;;;;3.75;1.25;;;;;;;;;;5101398;28;20036;-74
2023/07/26 13:01:10;;;;;;;2.55;1.40;;;;;;;;;;5090035;28;20043;-73
2023/07/26 13:03:37;;;;;;;2.38;1.25;;;;;;;;;;5101544;28;20930;-74
2023/07/26 13:06:04;;;;;;;3.58;1.98;;;;;;;;;;5083253;28;20032;-74
2023/07/26 13:08:31;;;;;;;3.60;1.80;;;;;;;;;;5102393;28;20036;-73
2023/07/26 13:10:57;;;;;;;4.47;1.40;;;;;;;;;;5089506;28;20163;-74
2023/07/26 13:13:23;;;;;;;2.13;1.42;;;;;;;;;;5098926;28;20040;-73
2023/07/26 13:15:49;;;;;;;5.00;1.67;;;;;;;;;;5097999;28;20032;-74
2023/07/26 13:18:15;;;;;;;1.70;1.00;;;;;;;;;;5103965;28;20032;-74
2023/07/26 13:20:41;;;;;;;2.35;1.27;;;;;;;;;;5099401;28;20040;-74
2023/07/26 13:23:07;;;;;;;2.58;1.35;;;;;;;;;;5103474;28;20473;-73
2023/07/26 13:25:33;;;;;;;3.40;1.27;;;;;;;;;;5091170;28;20056;-74
2023/07/26 13:27:59;;;;;;;5.10;1.55;;;;;;;;;;5094646;28;21283;-70
2023/07/26 13:30:25;;;;;;;5.63;1.75;;;;;;;;;;5092939;28;20054;-74
2023/07/26 13:32:51;;;;;;;3.67;1.48;;;;;;;;;;5085015;28;20529;-76
2023/07/26 13:35:17;;;;;;;3.67;1.63;;;;;;;;;;5082617;28;20048;-77
2023/07/26 13:37:43;;;;;;;2.38;1.10;;;;;;;;;;5096290;28;20044;-76
2023/07/26 13:40:12;;;;;;;4.65;1.48;;;;;;;;;;5094112;28;20169;-76
2023/07/26 13:42:38;;;;;;;6.05;1.40;;;;;;;;;;5086653;28;20012;-75
2023/07/26 13:45:05;;;;;;;3.75;1.60;;;;;;;;;;5079796;28;20128;-76
2023/07/26 13:47:31;;;;;;;6.70;2.00;;;;;;;;;;5088661;28;20055;-75
2023/07/26 13:49:57;;;;;;;4.95;1.60;;;;;;;;;;5091694;28;20115;-71
2023/07/26 13:52:23;;;;;;;9.15;4.38;;;;;;;;;;5079766;28;20460;-71
2023/07/26 13:54:49;;;;;;;6.60;1.80;;;;;;;;;;5090263;28;20059;-70
2023/07/26 13:57:15;;;;;;;7.10;1.92;;;;;;;;;;5093596;28;20027;-70
2023/07/26 13:59:41;;;;;;;4.60;1.80;;;;;;;;;;5086667;28;20028;-72
2023/07/26 14:02:07;;;;;;;4.07;1.60;;;;;;;;;;5086376;28;20036;-72
2023/07/26 14:04:33;;;;;;;3.78;1.55;;;;;;;;;;5089061;28;20391;-72
2023/07/26 14:07:00;;;;;;;3.35;1.85;;;;;;;;;;5072216;28;20533;-72
2023/07/26 14:09:26;;;;;;;4.32;1.52;;;;;;;;;;5079960;28;20070;-71
2023/07/26 14:11:52;;;;;;;4.95;1.83;;;;;;;;;;5078190;28;21624;-72
2023/07/26 14:14:18;;;;;;;4.97;2.10;;;;;;;;;;5094677;28;20110;-71
2023/07/26 14:16:44;;;;;;;3.90;1.80;;;;;;;;;;5090660;28;20074;-70
2023/07/26 14:19:10;;;;;;;4.05;2.30;;;;;;;;;;5083808;28;20035;-70
2023/07/26 14:21:36;;;;;;;6.03;2.05;;;;;;;;;;5094142;28;20123;-70
2023/07/26 14:24:02;;;;;;;4.35;1.73;;;;;;;;;;5077035;28;20233;-70
2023/07/26 14:26:29;;;;;;;6.20;1.70;;;;;;;;;;5080120;28;20055;-72
2023/07/26 14:28:55;;;;;;;9.95;5.78;;;;;;;;;;5090461;28;20048;-71
2023/07/26 14:31:21;;;;;;;4.60;3.00;;;;;;;;;;5091256;28;20477;-72
2023/07/26 14:33:47;;;;;;;4.90;2.08;;;;;;;;;;5087893;28;20055;-72
2023/07/26 14:36:13;;;;;;;9.18;2.17;;;;;;;;;;5085837;28;20376;-72
2023/07/26 14:38:39;;;;;;;8.00;2.35;;;;;;;;;;5087386;28;20044;-73
2023/07/26 14:41:07;;;;;;;7.32;2.08;;;;;;;;;;5096853;28;20358;-72